47.4F
Current conditions from King Hill
Updated every 5 minutes
 
  Monday September 25, 2023

Observations for Westford

Westford

43° 37' 38"N, 73° 02' 30"W, Elevation 850 ft.
Eastern Time

Hourly observations for the last 72 hours

Date Time Temperature (F) Humi-
dity

(%)
Wind
(mph)
Pressure Rain (in) Sun
(W/m2)
UV ET
(in)
Air Dew 6 Hour 1 Hr 3 Hr 6 Hr Day
Alt
(in)
Sea
Level

(mb)
Max Min
25 23:00 48.6 47.0 94 Calm 30.33 1027.1 0.01 0 0.0 0.078
25 22:00 50.0 48.3 94 Calm 30.31 1026.6 0.01 0 0.0 0.078
25 21:00 51.6 49.6 93 Calm 30.29 1025.8 0.01 0 0.0 0.078
25 20:00 53.3 51.0 70.9 53.3 92 Calm 30.27 1025.1 0.01 0 0.0 0.078
25 19:00 56.4 53.2 89 Calm 30.25 1024.4 0.01 0 0.0 0.078
25 18:00 63.6 57.7 81 Calm 30.24 1023.9 0.01 44 0.0 0.076
25 17:00 68.8 57.4 67 E 0 G 3 30.21 1023.0 0.01 167 0.0 0.071
25 16:00 69.8 57.1 64 NE 1 G 9 30.19 1022.6 0.01 429 0.0 0.065
25 15:00 69.4 57.1 65 N 2 G 10 30.19 1022.5 0.01 102 0.0 0.057
25 14:00 70.4 62.1 70.4 50.1 75 W 1 G 6 30.19 1022.3 0.01 687 0.0 0.047
25 13:00 69.8 57.9 66 NNW 2 G 9 30.19 1022.5 0.01 664 0.0 0.032
25 12:00 69.1 59.3 71 NNW 0 G 6 30.19 1022.4 0.01 624 0.0 0.019
25 11:00 65.1 58.1 78 N 1 G 8 30.18 1022.1 0.01 548 0.0 0.009
25 10:00 59.2 56.9 92 Calm 30.17 1021.8 0.01 422 0.0 0.003
25 09:00 54.1 53.5 98 WSW 0 G 3 30.16 1021.3 0.01 236 0.0 0.001
25 08:00 50.2 49.4 50.2 47.2 97 Calm 30.14 1020.7 0.01 0.01 0.01 69 0.0 0.000
25 07:00 47.2 46.1 96 Calm 30.12 1020.1 0.01 12 0.0 0.000
25 06:00 48.9 48.1 97 Calm 30.09 1019.1 0.01 0.01 0 0.0 0.000
25 05:00 48.2 47.1 96 Calm 30.08 1018.8 0.00 0 0.0 0.000
25 04:00 48.8 48.0 97 Calm 30.08 1018.8 0.00 0 0.0 0.000
25 03:00 47.7 46.6 96 Calm 30.08 1018.8 0.00 0 0.0 0.000
25 02:00 47.9 46.8 53.0 47.8 96 Calm 30.10 1019.3 0.00 0 0.0 0.000
25 01:00 48.1 47.0 96 Calm 30.10 1019.5 0.00 0 0.0 0.000
25 00:00 48.4 47.0 95 Calm 30.10 1019.4 0.00 0 0.0 0.067
24 23:00 49.1 47.7 95 Calm 30.11 1019.8 0.00 0 0.0 0.067
24 22:00 50.2 48.5 94 Calm 30.12 1019.9 0.00 0 0.0 0.067
24 21:00 51.1 49.1 93 Calm 30.11 1019.8 0.00 0 0.0 0.067
24 20:00 52.9 50.6 70.0 52.9 92 Calm 30.11 1019.7 0.00 0 0.0 0.067
24 19:00 56.7 52.6 86 Calm 30.11 1019.6 0.00 0 0.0 0.066
24 18:00 63.9 57.6 80 Calm 30.11 1019.7 0.00 47 0.0 0.063
24 17:00 67.2 59.4 76 WSW 1 G 3 30.10 1019.4 0.00 86 0.0 0.058
24 16:00 67.7 59.5 75 SW 1 G 4 30.10 1019.3 0.00 111 0.0 0.050
24 15:00 67.8 58.8 73 S 2 G 4 30.12 1020.0 0.00 330 0.0 0.043
24 14:00 69.5 56.8 70.8 51.4 64 S 0 G 2 30.13 1020.2 0.00 485 0.0 0.031
24 13:00 69.1 58.5 69 Calm 30.15 1020.9 0.00 564 0.0 0.021
24 12:00 65.4 56.5 73 WNW 0 G 3 30.17 1021.6 0.00 480 0.0 0.013
24 11:00 62.2 56.6 82 W 0 G 1 30.17 1021.9 0.00 364 0.0 0.007
24 10:00 57.1 56.3 97 Calm 30.18 1022.0 0.00 281 0.0 0.003
24 09:00 55.5 54.9 98 Calm 30.17 1021.8 0.00 127 0.0 0.001
24 08:00 51.4 50.6 52.5 50.5 97 Calm 30.17 1021.8 0.00 77 0.0 0.000
24 07:00 50.6 49.8 97 Calm 30.16 1021.5 0.00 7 0.0 0.000
24 06:00 50.8 50.0 97 Calm 30.16 1021.3 0.00 0 0.0 0.000
24 05:00 51.1 50.0 96 W 0 G 1 30.16 1021.3 0.00 0 0.0 0.000
24 04:00 51.2 50.1 96 Calm 30.16 1021.3 0.00 0 0.0 0.000
24 03:00 52.1 51.0 96 Calm 30.16 1021.5 0.00 0 0.0 0.000
24 02:00 52.4 51.3 54.9 52.0 96 Calm 30.19 1022.3 0.00 0 0.0 0.000
24 01:00 52.0 50.9 96 Calm 30.19 1022.4 0.00 0 0.0 0.000
24 00:00 53.2 51.8 95 Calm 30.19 1022.3 0.00 0 0.0 0.077
23 23:00 53.8 52.7 96 Calm 30.20 1022.9 0.00 0 0.0 0.077
23 22:00 53.6 52.2 95 Calm 30.21 1023.0 0.00 0 0.0 0.077
23 21:00 54.1 52.4 94 Calm 30.20 1022.7 0.00 0 0.0 0.077
23 20:00 54.9 52.6 70.4 54.9 92 Calm 30.20 1022.8 0.00 0 0.0 0.077
23 19:00 57.5 54.6 90 Calm 30.20 1022.7 0.00 0 0.0 0.077
23 18:00 61.9 58.0 87 Calm 30.20 1022.8 0.00 35 0.0 0.075
23 17:00 65.0 58.3 79 W 0 G 4 30.19 1022.4 0.00 100 0.0 0.071
23 16:00 69.5 60.1 72 Calm 30.19 1022.5 0.00 216 0.0 0.064
23 15:00 69.9 54.9 59 NE 2 G 5 30.21 1023.2 0.00 563 0.0 0.054
23 14:00 69.2 56.1 69.4 49.0 63 NNE 0 G 2 30.22 1023.5 0.00 352 0.0 0.045
23 13:00 69.1 57.7 67 NE 1 G 4 30.25 1024.6 0.00 457 0.0 0.032
23 12:00 68.0 58.6 72 NNE 1 G 4 30.27 1025.1 0.00 584 0.0 0.019
23 11:00 65.1 57.7 77 SE 0 G 3 30.27 1025.2 0.00 415 0.0 0.009
23 10:00 58.9 57.2 94 SW 0 G 3 30.29 1025.8 0.00 420 0.0 0.003
23 09:00 54.1 53.5 98 Calm 30.30 1026.1 0.00 244 0.0 0.001
23 08:00 49.0 48.2 49.8 46.5 97 Calm 30.30 1026.2 0.00 91 0.0 0.000
23 07:00 46.6 45.5 96 Calm 30.30 1026.0 0.00 14 0.0 0.000
23 06:00 46.8 45.7 96 Calm 30.29 1025.7 0.00 0 0.0 0.000
23 05:00 48.1 47.0 96 Calm 30.29 1025.7 0.00 0 0.0 0.000
23 04:00 48.7 47.6 96 Calm 30.29 1025.8 0.00 0 0.0 0.000
23 03:00 49.0 47.9 96 Calm 30.30 1026.2 0.00 0 0.0 0.000
23 02:00 49.8 48.7 54.7 49.4 96 Calm 30.31 1026.5 0.00 0 0.0 0.000
23 01:00 49.7 48.6 96 Calm 30.30 1026.1 0.00 0 0.0 0.000
23 00:00 50.5 49.4 96 Calm 30.31 1026.5 0.01 0 0.0 0.105

Data generated by WxSolution Version 1.9.2, Build 2023.03.05.


 
 
Current Radar Loop:

Copyright © WestfordWeather.net 2007-2023. All rights reserved.